createdAt,value
2018-12-08T00:01:49.989Z,23.60
2018-12-08T00:04:19.188Z,23.70
2018-12-08T00:06:48.456Z,23.80
2018-12-08T00:09:17.682Z,23.70
2018-12-08T00:11:48.019Z,23.80
2018-12-08T00:14:17.341Z,24.00
2018-12-08T00:16:46.576Z,24.10
2018-12-08T00:19:15.933Z,23.60
2018-12-08T00:21:45.165Z,23.50
2018-12-08T00:24:15.242Z,23.30
2018-12-08T00:26:44.450Z,23.40
2018-12-08T00:29:14.609Z,23.60
2018-12-08T00:31:45.506Z,23.70
2018-12-08T00:34:14.845Z,23.70
2018-12-08T00:36:49.488Z,23.80
2018-12-08T00:39:18.851Z,23.80
2018-12-08T00:41:48.188Z,23.80
2018-12-08T00:44:17.517Z,23.80
2018-12-08T00:46:47.753Z,23.90
2018-12-08T00:49:17.128Z,23.80
2018-12-08T00:51:46.385Z,23.80
2018-12-08T00:54:15.633Z,23.80
2018-12-08T00:56:44.867Z,23.70
2018-12-08T00:59:14.250Z,23.50
2018-12-08T01:01:44.084Z,23.50
2018-12-08T01:04:13.314Z,23.40
2018-12-08T01:06:43.146Z,23.40
2018-12-08T01:09:12.363Z,23.40
2018-12-08T01:11:41.794Z,23.40
2018-12-08T01:14:11.399Z,23.40
2018-12-08T01:16:40.611Z,23.50
2018-12-08T01:19:10.071Z,23.40
2018-12-08T01:21:39.324Z,23.40
2018-12-08T01:24:09.565Z,23.30
2018-12-08T01:26:38.796Z,23.30
2018-12-08T01:29:08.010Z,23.30
2018-12-08T01:31:37.225Z,23.30
2018-12-08T01:34:06.450Z,23.10
2018-12-08T01:36:35.733Z,23.20
2018-12-08T01:39:07.563Z,23.10
2018-12-08T01:41:36.813Z,23.10
2018-12-08T01:44:06.025Z,23.00
2018-12-08T01:46:35.306Z,23.10
2018-12-08T01:49:04.546Z,23.20
2018-12-08T01:51:33.771Z,23.10
2018-12-08T01:54:02.955Z,23.00
2018-12-08T01:56:32.135Z,23.10
2018-12-08T01:59:01.363Z,23.10
2018-12-08T02:01:30.937Z,23.10
2018-12-08T02:04:00.708Z,23.00
2018-12-08T02:06:29.916Z,22.90
2018-12-08T02:08:59.248Z,23.00
2018-12-08T02:11:28.486Z,22.90
2018-12-08T02:13:57.689Z,23.00
2018-12-08T02:16:26.875Z,23.00
2018-12-08T02:18:56.127Z,23.00
2018-12-08T02:21:25.298Z,23.00
2018-12-08T02:23:54.474Z,22.90
2018-12-08T02:26:23.710Z,22.90
2018-12-08T02:28:52.934Z,22.90
2018-12-08T02:31:22.119Z,22.80
2018-12-08T02:33:51.360Z,22.70
2018-12-08T02:36:20.546Z,22.70
2018-12-08T02:38:49.978Z,22.60
2018-12-08T02:41:19.184Z,22.50
2018-12-08T02:43:48.356Z,22.60
2018-12-08T02:46:17.514Z,22.70
2018-12-08T02:48:46.904Z,22.50
2018-12-08T02:51:16.731Z,22.40
2018-12-08T02:53:46.066Z,22.30
2018-12-08T02:56:15.247Z,22.30
2018-12-08T02:58:44.417Z,22.30
2018-12-08T03:01:13.584Z,22.30
2018-12-08T03:03:42.783Z,22.30
2018-12-08T03:06:12.234Z,22.30
2018-12-08T03:08:41.411Z,22.40
2018-12-08T03:11:10.574Z,22.30
2018-12-08T03:13:39.746Z,22.30
2018-12-08T03:16:08.922Z,22.20
2018-12-08T03:18:39.341Z,22.10
2018-12-08T03:21:08.522Z,22.20
2018-12-08T03:23:37.858Z,22.10
2018-12-08T03:26:07.025Z,22.10
2018-12-08T03:28:36.296Z,22.10
2018-12-08T03:31:05.577Z,22.00
2018-12-08T03:33:34.866Z,21.90
2018-12-08T03:36:04.040Z,22.00
2018-12-08T03:38:33.233Z,22.00
2018-12-08T03:41:02.461Z,22.00
2018-12-08T03:43:31.732Z,22.00
2018-12-08T03:46:00.978Z,22.00
2018-12-08T03:48:30.161Z,21.90
2018-12-08T03:51:04.987Z,21.80
2018-12-08T03:53:34.179Z,21.60
2018-12-08T03:56:03.344Z,21.70
2018-12-08T03:58:33.099Z,21.70
2018-12-08T04:01:02.456Z,21.60
2018-12-08T04:03:31.665Z,21.60
2018-12-08T04:06:00.873Z,21.70
2018-12-08T04:08:30.438Z,21.80
2018-12-08T04:10:59.696Z,21.70
2018-12-08T04:13:28.902Z,21.70
2018-12-08T04:15:58.277Z,21.80
2018-12-08T04:18:27.492Z,21.80
2018-12-08T04:20:56.679Z,21.80
2018-12-08T04:23:25.877Z,21.60
2018-12-08T04:25:55.851Z,21.60
2018-12-08T04:28:25.055Z,21.70
2018-12-08T04:30:54.249Z,21.60
2018-12-08T04:33:23.451Z,21.60
2018-12-08T04:35:54.564Z,21.60
2018-12-08T04:38:24.057Z,21.60
2018-12-08T04:40:53.237Z,21.60
2018-12-08T04:43:22.412Z,21.50
2018-12-08T04:45:51.611Z,21.60
2018-12-08T04:48:20.834Z,21.50
2018-12-08T04:50:50.002Z,21.40
2018-12-08T04:53:19.430Z,21.50
2018-12-08T04:55:48.625Z,21.40
2018-12-08T04:58:18.953Z,21.40
2018-12-08T05:00:48.703Z,21.30
2018-12-08T05:03:17.937Z,21.30
2018-12-08T05:05:47.135Z,21.40
2018-12-08T05:08:16.337Z,21.40
2018-12-08T05:10:45.790Z,21.30
2018-12-08T05:13:14.966Z,21.20
2018-12-08T05:15:48.273Z,21.20
2018-12-08T05:18:17.637Z,21.10
2018-12-08T05:20:47.930Z,21.20
2018-12-08T05:23:17.373Z,21.00
2018-12-08T05:25:46.549Z,21.10
2018-12-08T05:28:15.787Z,21.00
2018-12-08T05:30:46.131Z,21.00
2018-12-08T05:33:15.334Z,20.80
2018-12-08T05:35:44.508Z,20.70
2018-12-08T05:38:13.725Z,20.60
2018-12-08T05:40:42.900Z,20.50
2018-12-08T05:43:12.088Z,20.50
2018-12-08T05:45:41.274Z,20.30
2018-12-08T05:48:10.452Z,20.10
2018-12-08T05:50:39.650Z,19.80
2018-12-08T05:53:08.857Z,19.80
2018-12-08T05:55:38.509Z,19.70
2018-12-08T05:58:07.679Z,19.80
2018-12-08T06:00:36.885Z,19.90
2018-12-08T06:03:06.044Z,19.80
2018-12-08T06:05:35.284Z,19.80
2018-12-08T06:08:04.434Z,19.70
2018-12-08T06:10:33.595Z,19.80
2018-12-08T06:13:03.042Z,19.70
2018-12-08T06:15:32.217Z,19.60
2018-12-08T06:18:01.402Z,19.70
2018-12-08T06:20:30.568Z,19.80
2018-12-08T06:22:59.745Z,19.80
2018-12-08T06:25:29.235Z,19.80
2018-12-08T06:28:02.667Z,19.80
2018-12-08T06:30:31.844Z,19.60
2018-12-08T06:33:01.313Z,19.70
2018-12-08T06:35:30.471Z,19.70
2018-12-08T06:37:59.721Z,19.80
2018-12-08T06:40:29.266Z,19.80
2018-12-08T06:42:58.871Z,19.70
2018-12-08T06:45:28.076Z,19.70
2018-12-08T06:47:57.311Z,19.60
2018-12-08T06:50:26.526Z,19.60
2018-12-08T06:52:55.738Z,19.60
2018-12-08T06:55:25.082Z,19.40
2018-12-08T06:57:54.286Z,19.50
2018-12-08T07:00:23.537Z,19.50
2018-12-08T07:02:52.701Z,19.60
2018-12-08T07:05:21.922Z,19.70
2018-12-08T07:07:51.675Z,19.80
2018-12-08T07:10:20.849Z,19.80
2018-12-08T07:12:50.006Z,20.00
2018-12-08T07:15:19.540Z,20.10
2018-12-08T07:17:48.770Z,20.00
2018-12-08T07:20:18.019Z,20.30
2018-12-08T07:22:47.189Z,20.30
2018-12-08T07:25:16.420Z,20.40
2018-12-08T07:27:45.693Z,20.40
2018-12-08T07:30:14.987Z,20.50
2018-12-08T07:32:44.196Z,20.50
2018-12-08T07:35:13.454Z,20.40
2018-12-08T07:37:42.704Z,20.50
2018-12-08T07:40:11.948Z,20.40
2018-12-08T07:42:41.101Z,20.30
2018-12-08T07:45:10.374Z,20.30
2018-12-08T07:47:39.607Z,20.20
2018-12-08T07:50:08.869Z,20.00
2018-12-08T07:52:38.039Z,20.10
2018-12-08T07:55:07.416Z,20.20
2018-12-08T07:57:36.674Z,20.30
2018-12-08T08:00:08.904Z,20.20
2018-12-08T08:02:38.145Z,20.20
2018-12-08T08:05:08.868Z,20.10
2018-12-08T08:07:38.418Z,20.10
2018-12-08T08:10:09.200Z,20.00
2018-12-08T08:12:38.584Z,19.90
2018-12-08T08:15:08.362Z,19.80
2018-12-08T08:17:38.287Z,19.50
2018-12-08T08:20:07.969Z,19.20
2018-12-08T08:22:37.147Z,19.00
2018-12-08T08:25:07.744Z,19.10
2018-12-08T08:27:42.619Z,19.00
2018-12-08T08:30:11.896Z,18.80
2018-12-08T08:32:41.815Z,18.60
2018-12-08T08:35:11.062Z,18.40
2018-12-08T08:37:40.249Z,18.50
2018-12-08T08:40:10.599Z,18.50
2018-12-08T08:42:39.861Z,18.30
2018-12-08T08:45:15.193Z,18.20
2018-12-08T08:47:44.523Z,18.20
2018-12-08T08:50:13.808Z,18.30
2018-12-08T08:52:42.967Z,18.60
2018-12-08T08:55:12.118Z,18.80
2018-12-08T08:57:41.318Z,18.90
2018-12-08T09:00:10.715Z,18.90
2018-12-08T09:02:39.975Z,19.10
2018-12-08T09:05:09.262Z,19.20
2018-12-08T09:07:38.421Z,19.20
2018-12-08T09:10:09.433Z,19.30
2018-12-08T09:12:38.666Z,19.40
2018-12-08T09:15:09.368Z,19.40
2018-12-08T09:17:39.975Z,19.40
2018-12-08T09:20:10.321Z,19.40
2018-12-08T09:22:39.490Z,19.30
2018-12-08T09:25:08.824Z,19.10
2018-12-08T09:27:38.068Z,19.00
2018-12-08T09:30:07.711Z,18.80
2018-12-08T09:32:36.992Z,18.80
2018-12-08T09:35:06.392Z,18.80
2018-12-08T09:37:35.559Z,18.80
2018-12-08T09:40:05.783Z,18.70
2018-12-08T09:42:35.780Z,18.70
2018-12-08T09:45:05.194Z,18.60
2018-12-08T09:47:34.398Z,18.70
2018-12-08T09:50:05.635Z,18.90
2018-12-08T09:52:35.337Z,19.00
2018-12-08T09:55:04.656Z,19.00
2018-12-08T09:57:33.835Z,18.90
2018-12-08T10:00:03.069Z,19.10
2018-12-08T10:02:32.252Z,19.00
2018-12-08T10:05:01.424Z,19.10
2018-12-08T10:07:30.645Z,19.10
2018-12-08T10:09:59.821Z,19.10
2018-12-08T10:12:29.048Z,19.10
2018-12-08T10:14:58.183Z,18.80
2018-12-08T10:17:27.417Z,18.70
2018-12-08T10:19:57.139Z,18.60
2018-12-08T10:22:27.933Z,18.50
2018-12-08T10:24:57.362Z,18.40
2018-12-08T10:27:26.618Z,18.50
2018-12-08T10:29:55.823Z,18.70
2018-12-08T10:32:24.986Z,18.60
2018-12-08T10:34:54.306Z,18.60
2018-12-08T10:37:23.534Z,18.60
2018-12-08T10:39:52.760Z,18.60
2018-12-08T10:42:22.003Z,18.60
2018-12-08T10:44:56.891Z,18.60
2018-12-08T10:47:26.205Z,18.50
2018-12-08T10:49:55.417Z,18.60
2018-12-08T10:52:24.595Z,18.60
2018-12-08T10:54:53.840Z,18.60
2018-12-08T10:57:23.073Z,18.50
2018-12-08T10:59:52.280Z,18.60
2018-12-08T11:02:26.816Z,18.60
2018-12-08T11:04:56.157Z,18.70
2018-12-08T11:07:25.366Z,18.70
2018-12-08T11:09:54.569Z,18.70
2018-12-08T11:12:23.757Z,18.70
2018-12-08T11:15:00.471Z,18.60
2018-12-08T11:17:24.387Z,18.60
2018-12-08T11:19:53.658Z,18.50
2018-12-08T11:22:22.861Z,18.50
2018-12-08T11:24:52.063Z,18.60
2018-12-08T11:27:21.275Z,18.70
2018-12-08T11:29:50.434Z,18.60
2018-12-08T11:32:19.613Z,18.60
2018-12-08T11:34:48.844Z,18.70
2018-12-08T11:37:18.066Z,18.80
2018-12-08T11:39:47.255Z,18.80
2018-12-08T11:42:16.411Z,18.90
2018-12-08T11:44:45.887Z,18.90
2018-12-08T11:47:15.284Z,18.90
2018-12-08T11:49:44.553Z,18.90
2018-12-08T11:52:13.727Z,18.90
2018-12-08T11:54:42.945Z,18.70
2018-12-08T11:57:12.234Z,18.60
2018-12-08T11:59:41.425Z,18.40
2018-12-08T12:02:16.532Z,18.40
2018-12-08T12:04:42.157Z,18.30
2018-12-08T12:07:11.370Z,18.20
2018-12-08T12:09:40.614Z,18.10
2018-12-08T12:12:09.858Z,18.00
2018-12-08T12:14:43.755Z,17.80
2018-12-08T12:17:14.264Z,17.80
2018-12-08T12:19:44.520Z,17.90
2018-12-08T12:22:15.625Z,17.80
2018-12-08T12:24:45.967Z,17.70
2018-12-08T12:27:16.187Z,17.70
2018-12-08T12:29:46.413Z,17.70
2018-12-08T12:32:16.937Z,17.80
2018-12-08T12:34:47.158Z,17.80
2018-12-08T12:37:17.682Z,17.90
2018-12-08T12:39:47.904Z,18.10
2018-12-08T12:42:17.929Z,18.20
2018-12-08T12:44:48.346Z,18.30
2018-12-08T12:47:18.564Z,18.30
2018-12-08T12:49:48.790Z,18.40
2018-12-08T12:52:19.633Z,18.50
2018-12-08T12:54:49.867Z,18.80
2018-12-08T12:57:20.419Z,19.00
2018-12-08T12:59:50.612Z,18.90
2018-12-08T13:02:21.140Z,18.90
2018-12-08T13:04:51.363Z,19.00
2018-12-08T13:07:21.885Z,19.60
2018-12-08T13:09:53.030Z,20.40
2018-12-08T13:12:23.868Z,21.20
2018-12-08T13:14:55.008Z,21.80
2018-12-08T13:17:25.537Z,22.10
2018-12-08T13:19:56.680Z,22.30
2018-12-08T13:22:27.418Z,22.20
2018-12-08T13:25:05.225Z,22.00
2018-12-08T13:27:35.638Z,21.90
2018-12-08T13:30:07.090Z,21.80
2018-12-08T13:32:37.619Z,21.70
2018-12-08T13:35:09.981Z,21.50
2018-12-08T13:37:40.818Z,21.50
2018-12-08T13:40:11.037Z,21.50
2018-12-08T13:42:41.565Z,21.40
2018-12-08T13:45:18.234Z,21.50
2018-12-08T13:47:48.763Z,21.40
2018-12-08T13:50:18.985Z,21.60
2018-12-08T13:52:49.514Z,21.80
2018-12-08T13:55:19.788Z,22.10
2018-12-08T13:57:50.267Z,22.30
2018-12-08T14:00:20.787Z,22.40
2018-12-08T14:02:51.131Z,22.40
2018-12-08T14:05:21.354Z,22.50
2018-12-08T14:07:53.249Z,22.30
2018-12-08T14:10:23.640Z,22.30
2018-12-08T14:12:54.167Z,22.30
2018-12-08T14:15:24.389Z,22.40
2018-12-08T14:17:54.913Z,22.30
2018-12-08T14:20:27.894Z,22.20
2018-12-08T14:22:59.103Z,22.10
2018-12-08T14:25:29.705Z,21.90
2018-12-08T14:28:00.848Z,21.90
2018-12-08T14:30:31.821Z,21.90
2018-12-08T14:33:02.207Z,21.80
2018-12-08T14:35:32.748Z,21.80
2018-12-08T14:38:03.269Z,22.00
2018-12-08T14:40:36.409Z,22.30
2018-12-08T14:43:06.958Z,22.70
2018-12-08T14:45:37.616Z,22.90
2018-12-08T14:48:08.322Z,23.10
2018-12-08T14:50:38.931Z,23.50
2018-12-08T14:53:09.690Z,24.00
2018-12-08T14:55:40.216Z,24.70
2018-12-08T14:58:10.861Z,25.30
2018-12-08T15:00:42.006Z,26.00
2018-12-08T15:03:12.567Z,26.60
2018-12-08T15:05:43.144Z,27.20
2018-12-08T15:08:13.793Z,27.80
2018-12-08T15:10:45.037Z,28.40
2018-12-08T15:13:15.572Z,28.60
2018-12-08T15:15:47.325Z,29.00
2018-12-08T15:18:17.886Z,29.40
2018-12-08T15:20:48.418Z,29.20
2018-12-08T15:23:19.881Z,28.90
2018-12-08T15:25:51.290Z,29.20
2018-12-08T15:28:21.960Z,29.40
2018-12-08T15:30:52.509Z,29.60
2018-12-08T15:33:23.321Z,30.10
2018-12-08T15:35:56.221Z,30.50
2018-12-08T15:38:26.840Z,30.70
2018-12-08T15:40:58.851Z,30.70
2018-12-08T15:43:29.734Z,30.80
2018-12-08T15:46:01.433Z,30.90
2018-12-08T15:48:31.997Z,31.00
2018-12-08T15:51:02.522Z,31.30
2018-12-08T15:53:34.310Z,31.60
2018-12-08T15:56:07.897Z,32.00
2018-12-08T15:58:39.033Z,32.10
2018-12-08T16:01:09.560Z,32.10
2018-12-08T16:03:40.082Z,32.50
2018-12-08T16:06:11.541Z,32.60
2018-12-08T16:08:42.054Z,32.00
2018-12-08T16:11:12.586Z,31.70
2018-12-08T16:13:43.457Z,32.10
2018-12-08T16:16:13.949Z,32.30
2018-12-08T16:18:44.840Z,31.40
2018-12-08T16:21:15.623Z,31.80
2018-12-08T16:23:49.197Z,32.40
2018-12-08T16:26:19.751Z,32.90
2018-12-08T16:28:50.595Z,33.10
2018-12-08T16:31:21.108Z,33.00
2018-12-08T16:33:52.249Z,33.30
2018-12-08T16:36:22.779Z,33.10
2018-12-08T16:38:54.613Z,33.00
2018-12-08T16:41:25.073Z,33.40
2018-12-08T16:43:56.817Z,33.20
2018-12-08T16:46:28.593Z,32.90
2018-12-08T16:48:59.442Z,32.00
2018-12-08T16:51:30.903Z,31.70
2018-12-08T16:54:02.023Z,30.60
2018-12-08T16:56:32.466Z,30.80
2018-12-08T16:59:06.992Z,31.10
2018-12-08T17:01:37.609Z,31.90
2018-12-08T17:04:08.738Z,32.30
2018-12-08T17:06:39.581Z,32.30
2018-12-08T17:09:10.720Z,31.90
2018-12-08T17:11:45.244Z,31.70
2018-12-08T17:14:16.068Z,32.20
2018-12-08T17:16:46.923Z,32.10
2018-12-08T17:19:17.438Z,31.80
2018-12-08T17:21:48.895Z,31.30
2018-12-08T17:24:20.643Z,30.40
2018-12-08T17:26:53.013Z,30.00
2018-12-08T17:29:23.846Z,29.70
2018-12-08T17:31:55.600Z,29.30
2018-12-08T17:34:27.459Z,29.20
2018-12-08T17:36:59.045Z,29.30
2018-12-08T17:39:29.952Z,29.30
2018-12-08T17:42:00.559Z,29.40
2018-12-08T17:44:32.241Z,28.90
2018-12-08T17:47:02.774Z,28.70
2018-12-08T17:49:34.831Z,28.90
2018-12-08T17:52:05.357Z,29.10
2018-12-08T17:54:37.125Z,29.30
2018-12-08T17:57:08.599Z,30.00
2018-12-08T17:59:39.006Z,30.30
2018-12-08T18:02:12.323Z,30.40
2018-12-08T18:04:43.225Z,30.40
2018-12-08T18:07:13.863Z,30.70
2018-12-08T18:09:45.397Z,31.40
2018-12-08T18:12:15.840Z,32.20
2018-12-08T18:14:46.629Z,32.30
2018-12-08T18:17:17.258Z,32.10
2018-12-08T18:19:47.643Z,31.40
2018-12-08T18:22:18.429Z,30.90
2018-12-08T18:24:50.057Z,30.40
2018-12-08T18:27:20.523Z,30.20
2018-12-08T18:29:52.033Z,30.10
2018-12-08T18:32:22.637Z,29.60
2018-12-08T18:34:53.836Z,30.20
2018-12-08T18:37:24.410Z,30.40
2018-12-08T18:39:56.096Z,30.60
2018-12-08T18:42:26.382Z,30.20
2018-12-08T18:44:57.115Z,30.70
2018-12-08T18:47:27.592Z,31.40
2018-12-08T18:50:00.655Z,31.30
2018-12-08T18:52:31.282Z,31.20
2018-12-08T18:55:02.121Z,30.90
2018-12-08T18:57:32.319Z,30.00
2018-12-08T19:00:02.958Z,29.40
2018-12-08T19:02:33.577Z,29.40
2018-12-08T19:05:04.229Z,29.80
2018-12-08T19:07:34.754Z,29.80
2018-12-08T19:10:06.798Z,29.60
2018-12-08T19:12:37.173Z,29.80
2018-12-08T19:15:07.885Z,29.40
2018-12-08T19:17:38.409Z,29.30
2018-12-08T19:20:09.038Z,29.50
2018-12-08T19:22:39.433Z,29.50
2018-12-08T19:25:11.946Z,29.20
2018-12-08T19:27:42.334Z,28.90
2018-12-08T19:30:13.179Z,28.40
2018-12-08T19:32:43.708Z,28.30
2018-12-08T19:35:14.915Z,28.60
2018-12-08T19:37:45.402Z,28.90
2018-12-08T19:40:16.205Z,29.10
2018-12-08T19:42:47.342Z,29.20
2018-12-08T19:45:20.657Z,29.00
2018-12-08T19:47:52.719Z,29.00
2018-12-08T19:50:24.779Z,28.50
2018-12-08T19:52:55.312Z,28.40
2018-12-08T19:55:26.134Z,28.10
2018-12-08T19:57:56.665Z,27.80
2018-12-08T20:00:27.199Z,27.70
2018-12-08T20:02:57.405Z,27.70
2018-12-08T20:05:27.935Z,27.50
2018-12-08T20:07:58.479Z,27.50
2018-12-08T20:10:29.293Z,27.80
2018-12-08T20:12:59.824Z,27.80
2018-12-08T20:15:30.353Z,27.80
2018-12-08T20:18:00.879Z,27.50
2018-12-08T20:20:31.407Z,27.70
2018-12-08T20:23:01.946Z,27.70
2018-12-08T20:25:34.615Z,27.70
2018-12-08T20:28:05.159Z,27.50
2018-12-08T20:30:36.249Z,27.80
2018-12-08T20:33:06.722Z,28.00
2018-12-08T20:35:37.363Z,28.00
2018-12-08T20:38:09.656Z,28.20
2018-12-08T20:40:40.572Z,28.30
2018-12-08T20:43:12.027Z,28.70
2018-12-08T20:45:42.540Z,28.10
2018-12-08T20:48:14.002Z,28.30
2018-12-08T20:50:44.519Z,28.10
2018-12-08T20:53:15.972Z,27.30
2018-12-08T20:55:46.807Z,26.90
2018-12-08T20:58:17.331Z,26.90
2018-12-08T21:00:47.784Z,26.90
2018-12-08T21:03:18.316Z,26.60
2018-12-08T21:05:48.847Z,26.50
2018-12-08T21:08:19.375Z,26.50
2018-12-08T21:10:50.822Z,26.70
2018-12-08T21:13:21.654Z,27.20
2018-12-08T21:15:54.948Z,27.10
2018-12-08T21:18:26.092Z,27.40
2018-12-08T21:20:57.230Z,27.70
2018-12-08T21:23:27.779Z,27.60
2018-12-08T21:25:59.530Z,27.50
2018-12-08T21:28:30.063Z,27.70
2018-12-08T21:31:00.584Z,27.60
2018-12-08T21:33:31.129Z,27.60
2018-12-08T21:36:01.644Z,27.80
2018-12-08T21:38:32.001Z,27.10
2018-12-08T21:41:02.696Z,26.90
2018-12-08T21:43:33.227Z,26.70
2018-12-08T21:46:04.063Z,26.90
2018-12-08T21:48:34.594Z,26.70
2018-12-08T21:51:05.114Z,26.60
2018-12-08T21:53:35.743Z,26.60
2018-12-08T21:56:06.789Z,26.90
2018-12-08T21:58:37.433Z,26.70
2018-12-08T22:01:09.093Z,26.40
2018-12-08T22:03:39.614Z,26.50
2018-12-08T22:06:10.129Z,26.30
2018-12-08T22:08:40.768Z,26.50
2018-12-08T22:11:11.506Z,26.20
2018-12-08T22:13:42.045Z,26.20
2018-12-08T22:16:12.566Z,26.10
2018-12-08T22:18:43.088Z,25.90
2018-12-08T22:21:14.850Z,25.80
2018-12-08T22:23:45.315Z,25.90
2018-12-08T22:26:18.644Z,26.00
2018-12-08T22:28:49.192Z,26.20
2018-12-08T22:31:20.530Z,26.30
2018-12-08T22:33:52.448Z,26.30
2018-12-08T22:36:22.969Z,26.10
2018-12-08T22:38:53.186Z,26.00
2018-12-08T22:41:24.026Z,25.80
2018-12-08T22:43:54.246Z,25.80
2018-12-08T22:46:25.378Z,25.60
2018-12-08T22:48:55.980Z,25.60
2018-12-08T22:51:26.754Z,25.30
2018-12-08T22:53:57.278Z,25.20
2018-12-08T22:56:27.801Z,25.20
2018-12-08T22:58:57.833Z,25.00
2018-12-08T23:01:28.309Z,24.80
2018-12-08T23:03:59.694Z,24.80
2018-12-08T23:06:30.522Z,24.90
2018-12-08T23:09:00.742Z,24.90
2018-12-08T23:11:31.280Z,24.80
2018-12-08T23:14:01.801Z,24.70
2018-12-08T23:16:32.329Z,24.60
2018-12-08T23:19:02.861Z,24.60
2018-12-08T23:21:33.384Z,24.60
2018-12-08T23:24:03.910Z,24.50
2018-12-08T23:26:34.748Z,24.50
2018-12-08T23:29:05.278Z,24.50
2018-12-08T23:31:35.499Z,24.40
2018-12-08T23:34:05.715Z,24.20
2018-12-08T23:36:35.940Z,24.20
2018-12-08T23:39:07.809Z,24.10
2018-12-08T23:41:38.428Z,24.00
2018-12-08T23:44:08.574Z,23.90
2018-12-08T23:46:42.124Z,23.80
2018-12-08T23:49:12.572Z,23.60
2018-12-08T23:51:43.096Z,23.60
2018-12-08T23:54:13.633Z,23.70
2018-12-08T23:56:44.154Z,23.80
2018-12-08T23:59:14.374Z,23.90
